createdAt,value
2024-01-12T00:01:14.321Z,43.00
2024-01-12T00:03:41.006Z,41.97
2024-01-12T00:06:08.019Z,43.07
2024-01-12T00:08:39.264Z,43.87
2024-01-12T00:11:10.011Z,43.27
2024-01-12T00:13:36.962Z,46.57
2024-01-12T00:16:07.711Z,45.90
2024-01-12T00:18:35.458Z,43.80
2024-01-12T00:21:02.342Z,45.27
2024-01-12T00:23:28.985Z,39.80
2024-01-12T00:26:00.117Z,45.67
2024-01-12T00:28:28.624Z,42.83
2024-01-12T00:30:56.070Z,38.63
2024-01-12T00:33:22.708Z,38.23
2024-01-12T00:35:50.009Z,39.37
2024-01-12T00:38:16.836Z,38.17
2024-01-12T00:40:44.635Z,39.30
2024-01-12T00:43:11.365Z,38.07
2024-01-12T00:45:37.945Z,40.43
2024-01-12T00:48:06.337Z,41.53
2024-01-12T00:50:32.880Z,39.47
2024-01-12T00:52:59.367Z,40.87
2024-01-12T00:55:25.951Z,39.57
2024-01-12T00:57:52.467Z,39.57
2024-01-12T01:00:19.194Z,37.40
2024-01-12T01:02:46.068Z,38.17
2024-01-12T01:05:12.563Z,38.50
2024-01-12T01:07:39.096Z,33.03
2024-01-12T01:10:05.843Z,39.13
2024-01-12T01:12:32.376Z,33.20
2024-01-12T01:14:58.974Z,33.13
2024-01-12T01:17:26.820Z,33.23
2024-01-12T01:19:53.386Z,34.37
2024-01-12T01:22:20.143Z,30.73
2024-01-12T01:24:46.806Z,32.23
2024-01-12T01:27:14.297Z,30.13
2024-01-12T01:29:41.064Z,34.00
2024-01-12T01:32:07.603Z,28.37
2024-01-12T01:34:34.298Z,28.97
2024-01-12T01:37:04.141Z,29.93
2024-01-12T01:39:30.686Z,29.13
2024-01-12T01:41:57.469Z,29.13
2024-01-12T01:44:26.845Z,27.47
2024-01-12T01:46:57.072Z,28.07
2024-01-12T01:49:24.337Z,26.60
2024-01-12T01:51:51.531Z,26.77
2024-01-12T01:54:20.551Z,27.53
2024-01-12T01:56:47.548Z,28.17
2024-01-12T01:59:14.738Z,26.80
2024-01-12T02:01:41.310Z,24.63
2024-01-12T02:04:09.626Z,24.63
2024-01-12T02:06:36.375Z,27.97
2024-01-12T02:09:05.615Z,27.73
2024-01-12T02:11:32.299Z,24.80
2024-01-12T02:13:59.163Z,29.37
2024-01-12T02:16:25.993Z,28.80
2024-01-12T02:18:53.347Z,26.13
2024-01-12T02:21:19.918Z,24.60
2024-01-12T02:23:46.399Z,29.43
2024-01-12T02:26:14.962Z,25.37
2024-01-12T02:28:41.848Z,26.50
2024-01-12T02:31:08.695Z,24.60
2024-01-12T02:33:35.478Z,24.37
2024-01-12T02:36:02.053Z,25.27
2024-01-12T02:38:29.705Z,27.43
2024-01-12T02:40:56.472Z,23.20
2024-01-12T02:43:22.945Z,23.03
2024-01-12T02:45:49.476Z,24.47
2024-01-12T02:48:16.321Z,22.63
2024-01-12T02:50:42.984Z,25.13
2024-01-12T02:53:10.691Z,28.87
2024-01-12T02:55:37.236Z,27.37
2024-01-12T02:58:04.377Z,31.07
2024-01-12T03:00:32.556Z,29.93
2024-01-12T03:03:00.342Z,27.20
2024-01-12T03:05:27.358Z,28.03
2024-01-12T03:07:55.088Z,34.07
2024-01-12T03:10:21.652Z,34.40
2024-01-12T03:12:48.242Z,35.30
2024-01-12T03:15:14.903Z,30.53
2024-01-12T03:17:42.039Z,30.20
2024-01-12T03:20:09.313Z,29.03
2024-01-12T03:22:40.108Z,30.43
2024-01-12T03:25:06.849Z,32.83
2024-01-12T03:27:35.146Z,34.70
2024-01-12T03:30:01.933Z,30.03
2024-01-12T03:32:28.916Z,31.10
2024-01-12T03:34:56.162Z,28.80
2024-01-12T03:37:23.106Z,34.50
2024-01-12T03:39:50.811Z,33.67
2024-01-12T03:42:17.642Z,30.50
2024-01-12T03:44:44.940Z,30.63
2024-01-12T03:47:12.007Z,31.80
2024-01-12T03:49:38.816Z,29.17
2024-01-12T03:52:15.063Z,33.57
2024-01-12T03:54:43.190Z,31.80
2024-01-12T03:57:09.769Z,32.90
2024-01-12T03:59:36.666Z,28.73
2024-01-12T04:02:03.430Z,29.23
2024-01-12T04:04:30.233Z,29.63
2024-01-12T04:06:57.197Z,29.00
2024-01-12T04:09:24.218Z,34.33
2024-01-12T04:11:51.115Z,29.83
2024-01-12T04:14:17.899Z,29.33
2024-01-12T04:16:44.817Z,29.70
2024-01-12T04:19:11.822Z,33.17
2024-01-12T04:21:38.424Z,28.90
2024-01-12T04:24:05.080Z,30.40
2024-01-12T04:26:32.326Z,30.97
2024-01-12T04:28:59.226Z,30.57
2024-01-12T04:31:25.700Z,30.17
2024-01-12T04:33:52.337Z,27.53
2024-01-12T04:36:23.089Z,26.03
2024-01-12T04:38:49.644Z,28.17
2024-01-12T04:41:16.324Z,26.63
2024-01-12T04:43:43.082Z,29.40
2024-01-12T04:46:09.855Z,34.43
2024-01-12T04:48:36.483Z,26.97
2024-01-12T04:51:03.050Z,27.37
2024-01-12T04:53:30.426Z,29.40
2024-01-12T04:55:57.125Z,27.27
2024-01-12T04:58:23.766Z,24.40
2024-01-12T05:00:50.435Z,26.37
2024-01-12T05:03:17.464Z,24.30
2024-01-12T05:05:44.400Z,24.00
2024-01-12T05:08:11.083Z,23.53
2024-01-12T05:10:37.593Z,23.37
2024-01-12T05:13:04.668Z,26.53
2024-01-12T05:15:31.616Z,28.13
2024-01-12T05:17:58.840Z,26.43
2024-01-12T05:20:26.495Z,26.87
2024-01-12T05:22:53.449Z,25.23
2024-01-12T05:25:20.284Z,24.57
2024-01-12T05:27:46.798Z,27.03
2024-01-12T05:30:14.825Z,21.67
2024-01-12T05:38:36.395Z,24.27
2024-01-12T05:41:02.999Z,26.27
2024-01-12T05:43:29.785Z,30.27
2024-01-12T05:45:58.120Z,32.23
2024-01-12T05:48:25.590Z,25.20
2024-01-12T05:50:52.290Z,28.80
2024-01-12T05:53:23.342Z,24.23
2024-01-12T05:55:50.384Z,23.67
2024-01-12T05:58:18.995Z,25.93
2024-01-12T06:00:46.563Z,27.50
2024-01-12T06:03:16.336Z,28.50
2024-01-12T06:05:45.463Z,25.80
2024-01-12T06:08:14.080Z,28.63
2024-01-12T06:10:41.161Z,25.90
2024-01-12T06:13:07.680Z,24.33
2024-01-12T06:15:34.356Z,24.07
2024-01-12T06:18:02.200Z,24.13
2024-01-12T06:20:28.941Z,23.40
2024-01-12T06:22:55.618Z,20.20
2024-01-12T06:25:22.121Z,23.10
2024-01-12T06:27:48.898Z,21.50
2024-01-12T06:30:15.778Z,21.23
2024-01-12T06:32:42.546Z,20.90
2024-01-12T06:35:10.029Z,23.63
2024-01-12T06:37:36.597Z,24.07
2024-01-12T06:40:04.019Z,22.77
2024-01-12T06:42:30.733Z,26.27
2024-01-12T06:44:57.726Z,20.67
2024-01-12T06:47:24.436Z,25.17
2024-01-12T06:49:51.306Z,23.60
2024-01-12T06:52:17.872Z,23.03
2024-01-12T06:54:45.120Z,22.33
2024-01-12T06:57:12.196Z,23.43
2024-01-12T06:59:39.583Z,25.97
2024-01-12T07:02:08.816Z,24.23
2024-01-12T07:04:35.749Z,26.93
2024-01-12T07:07:02.330Z,29.03
2024-01-12T07:09:28.857Z,25.60
2024-01-12T07:11:55.541Z,26.90
2024-01-12T07:14:22.208Z,29.57
2024-01-12T07:16:48.751Z,24.70
2024-01-12T07:19:15.588Z,26.50
2024-01-12T07:21:42.409Z,27.87
2024-01-12T07:24:09.195Z,26.50
2024-01-12T07:26:35.702Z,30.80
2024-01-12T07:29:03.321Z,32.70
2024-01-12T07:31:29.862Z,25.87
2024-01-12T07:33:56.848Z,27.73
2024-01-12T07:36:23.546Z,26.77
2024-01-12T07:38:50.046Z,26.73
2024-01-12T07:41:17.601Z,30.23
2024-01-12T07:43:44.023Z,29.57
2024-01-12T07:46:16.362Z,28.10
2024-01-12T07:48:43.215Z,30.37
2024-01-12T07:51:10.016Z,30.67
2024-01-12T07:53:36.565Z,30.40
2024-01-12T07:56:03.042Z,31.23
2024-01-12T07:58:30.455Z,31.73
2024-01-12T08:00:57.086Z,31.90
2024-01-12T08:03:23.872Z,36.07
2024-01-12T08:05:50.453Z,33.37
2024-01-12T08:08:18.143Z,30.67
2024-01-12T08:10:44.937Z,28.00
2024-01-12T08:13:11.357Z,29.07
2024-01-12T08:15:37.847Z,31.90
2024-01-12T08:18:05.061Z,29.87
2024-01-12T08:20:32.480Z,33.20
2024-01-12T08:22:59.027Z,36.30
2024-01-12T08:25:25.638Z,39.17
2024-01-12T08:27:52.152Z,37.67
2024-01-12T08:30:18.703Z,36.03
2024-01-12T08:32:45.803Z,38.33
2024-01-12T08:35:12.940Z,36.67
2024-01-12T08:37:42.358Z,36.23
2024-01-12T08:40:08.989Z,36.63
2024-01-12T08:42:35.647Z,40.20
2024-01-12T08:45:02.495Z,34.07
2024-01-12T08:47:30.781Z,36.87
2024-01-12T08:49:59.552Z,35.93
2024-01-12T08:52:26.407Z,36.83
2024-01-12T08:54:53.041Z,37.73
2024-01-12T08:57:19.528Z,40.60
2024-01-12T08:59:46.327Z,38.43
2024-01-12T09:02:12.833Z,39.67
2024-01-12T09:04:39.548Z,41.53
2024-01-12T09:07:06.454Z,42.90
2024-01-12T09:09:33.013Z,43.90
2024-01-12T09:12:02.293Z,40.00
2024-01-12T09:14:28.897Z,41.63
2024-01-12T09:16:55.428Z,39.83
2024-01-12T09:19:22.256Z,43.63
2024-01-12T09:21:48.782Z,40.57
2024-01-12T09:24:15.364Z,43.23
2024-01-12T09:26:42.640Z,45.63
2024-01-12T09:29:09.400Z,45.53
2024-01-12T09:31:35.852Z,42.43
2024-01-12T09:34:02.697Z,41.80
2024-01-12T09:36:29.573Z,44.07
2024-01-12T09:38:56.430Z,43.63
2024-01-12T09:41:45.325Z,41.90
2024-01-12T09:44:12.916Z,45.50
2024-01-12T09:46:57.235Z,43.17
2024-01-12T09:49:25.690Z,47.60
2024-01-12T09:51:52.314Z,45.93
2024-01-12T09:54:18.966Z,49.73
2024-01-12T09:56:47.036Z,51.20
2024-01-12T09:59:13.985Z,42.13
2024-01-12T10:01:42.406Z,47.00
2024-01-12T10:04:10.130Z,44.03
2024-01-12T10:06:38.219Z,43.97
2024-01-12T10:09:05.690Z,47.67
2024-01-12T10:11:32.592Z,45.17
2024-01-12T10:14:01.170Z,48.33
2024-01-12T10:16:30.543Z,44.20
2024-01-12T10:18:58.549Z,46.80
2024-01-12T10:21:26.282Z,43.70
2024-01-12T10:24:03.443Z,47.07
2024-01-12T10:26:30.624Z,44.87
2024-01-12T10:29:02.113Z,47.57
2024-01-12T10:31:29.443Z,46.83
2024-01-12T10:33:58.570Z,49.40
2024-01-12T10:36:28.242Z,52.07
2024-01-12T10:38:57.490Z,48.23
2024-01-12T10:41:25.858Z,48.80
2024-01-12T10:43:54.288Z,49.63
2024-01-12T10:46:38.692Z,49.73
2024-01-12T10:49:21.783Z,48.70
2024-01-12T10:52:29.367Z,44.90
2024-01-12T10:55:08.911Z,50.87
2024-01-12T10:57:37.013Z,48.27
2024-01-12T11:00:06.451Z,54.83
2024-01-12T11:02:33.998Z,48.77
2024-01-12T11:05:01.585Z,52.70
2024-01-12T11:07:29.003Z,46.47
2024-01-12T11:09:59.811Z,50.63
2024-01-12T11:12:33.926Z,49.23
2024-01-12T11:15:01.444Z,54.73
2024-01-12T11:17:32.586Z,52.90
2024-01-12T11:20:12.562Z,46.93
2024-01-12T11:22:45.909Z,52.90
2024-01-12T11:25:14.694Z,46.73
2024-01-12T11:27:43.807Z,51.17
2024-01-12T11:30:17.086Z,47.97
2024-01-12T11:32:46.086Z,50.13
2024-01-12T11:35:15.605Z,52.37
2024-01-12T11:37:43.901Z,55.87
2024-01-12T11:40:13.400Z,54.37
2024-01-12T11:42:45.160Z,53.40
2024-01-12T11:45:13.585Z,53.87
2024-01-12T11:47:42.583Z,52.50
2024-01-12T11:50:11.614Z,53.43
2024-01-12T11:52:38.353Z,46.00
2024-01-12T11:55:08.973Z,54.07
2024-01-12T11:57:39.274Z,41.20
2024-01-12T12:00:08.137Z,54.47
2024-01-12T12:02:37.845Z,44.87
2024-01-12T12:05:11.019Z,55.37
2024-01-12T12:07:38.945Z,46.80
2024-01-12T12:10:07.420Z,52.13
2024-01-12T12:12:34.589Z,50.03
2024-01-12T12:15:05.863Z,50.23
2024-01-12T12:17:35.444Z,49.80
2024-01-12T12:20:02.671Z,48.47
2024-01-12T12:22:31.196Z,47.83
2024-01-12T12:24:58.266Z,48.23
2024-01-12T12:27:25.221Z,54.53
2024-01-12T12:29:51.966Z,52.90
2024-01-12T12:32:18.925Z,55.10
2024-01-12T12:34:47.660Z,55.17
2024-01-12T12:37:14.790Z,51.67
2024-01-12T12:39:41.638Z,56.60
2024-01-12T12:42:14.331Z,56.10
2024-01-12T12:44:43.198Z,59.40
2024-01-12T12:47:10.022Z,55.23
2024-01-12T12:49:38.234Z,54.87
2024-01-12T12:52:05.684Z,48.03
2024-01-12T12:54:32.915Z,48.80
2024-01-12T12:57:00.275Z,50.33
2024-01-12T12:59:30.383Z,49.60
2024-01-12T13:01:57.496Z,47.10
2024-01-12T13:04:27.161Z,47.77
2024-01-12T13:06:54.079Z,44.57
2024-01-12T13:09:20.938Z,44.93
2024-01-12T13:11:47.868Z,41.60
2024-01-12T13:14:14.472Z,44.03
2024-01-12T13:16:41.779Z,44.00
2024-01-12T13:19:15.067Z,50.60
2024-01-12T13:21:50.041Z,44.30
2024-01-12T13:24:16.882Z,45.07
2024-01-12T13:26:43.826Z,51.60
2024-01-12T13:29:11.200Z,45.67
2024-01-12T13:31:39.338Z,43.60
2024-01-12T13:34:06.477Z,42.27
2024-01-12T13:36:33.332Z,45.13
2024-01-12T13:39:00.407Z,48.03
2024-01-12T13:41:27.333Z,44.30
2024-01-12T13:43:55.473Z,43.50
2024-01-12T13:46:23.436Z,42.73
2024-01-12T13:48:50.377Z,45.73
2024-01-12T13:51:18.778Z,42.10
2024-01-12T13:53:48.907Z,45.90
2024-01-12T13:56:16.241Z,40.50
2024-01-12T13:58:43.241Z,43.90
2024-01-12T14:01:15.178Z,43.17
2024-01-12T14:03:42.853Z,39.50
2024-01-12T14:06:12.366Z,41.37
2024-01-12T14:08:40.085Z,39.60
2024-01-12T14:11:07.167Z,44.00
2024-01-12T14:13:36.057Z,40.93
2024-01-12T14:16:03.908Z,41.30
2024-01-12T14:18:31.093Z,43.07
2024-01-12T14:20:58.823Z,43.23
2024-01-12T14:23:26.472Z,42.10
2024-01-12T14:25:54.285Z,35.00
2024-01-12T14:28:29.010Z,39.53
2024-01-12T14:31:00.283Z,44.97
2024-01-12T14:33:28.127Z,41.60
2024-01-12T14:35:55.671Z,41.77
2024-01-12T14:38:24.174Z,38.80
2024-01-12T14:40:51.991Z,40.43
2024-01-12T14:43:18.894Z,41.43
2024-01-12T14:45:45.614Z,44.50
2024-01-12T14:48:14.711Z,40.93
2024-01-12T14:50:44.787Z,43.97
2024-01-12T14:53:11.581Z,40.20
2024-01-12T14:55:39.215Z,37.67
2024-01-12T14:58:05.662Z,38.10
2024-01-12T15:00:32.561Z,39.03
2024-01-12T15:02:59.560Z,38.80
2024-01-12T15:05:26.873Z,39.93
2024-01-12T15:07:53.861Z,39.23
2024-01-12T15:10:20.754Z,49.23
2024-01-12T15:12:47.934Z,46.50
2024-01-12T15:15:14.727Z,46.63
2024-01-12T15:17:42.738Z,46.10
2024-01-12T15:20:10.490Z,43.33
2024-01-12T15:22:37.011Z,45.43
2024-01-12T15:25:06.596Z,52.27
2024-01-12T15:27:33.158Z,54.37
2024-01-12T15:29:59.808Z,51.37
2024-01-12T15:32:26.953Z,52.00
2024-01-12T15:34:54.234Z,44.53
2024-01-12T15:37:21.401Z,47.30
2024-01-12T15:39:48.106Z,42.87
2024-01-12T15:42:14.777Z,44.47
2024-01-12T15:44:41.959Z,44.77
2024-01-12T15:47:08.767Z,43.93
2024-01-12T15:49:35.500Z,45.50
2024-01-12T15:52:03.144Z,48.90
2024-01-12T15:54:29.649Z,46.73
2024-01-12T15:56:57.369Z,46.40
2024-01-12T15:59:24.206Z,53.90
2024-01-12T16:01:50.789Z,47.50
2024-01-12T16:04:18.176Z,54.00
2024-01-12T16:06:48.430Z,48.33
2024-01-12T16:09:15.930Z,47.27
2024-01-12T16:11:42.595Z,49.97
2024-01-12T16:14:09.363Z,54.07
2024-01-12T16:16:35.769Z,50.13
2024-01-12T16:19:08.340Z,49.37
2024-01-12T16:21:41.609Z,52.10
2024-01-12T16:24:09.965Z,53.43
2024-01-12T16:26:41.647Z,52.60
2024-01-12T16:29:09.278Z,49.47
2024-01-12T16:31:36.171Z,49.97
2024-01-12T16:34:02.868Z,45.53
2024-01-12T16:36:29.422Z,49.67
2024-01-12T16:38:55.937Z,49.40
2024-01-12T16:41:22.443Z,47.10
2024-01-12T16:43:48.936Z,53.80
2024-01-12T16:46:15.370Z,55.10
2024-01-12T16:48:42.154Z,54.03
2024-01-12T16:51:08.844Z,50.97
2024-01-12T16:53:35.459Z,51.87
2024-01-12T16:56:02.560Z,55.70
2024-01-12T16:58:29.022Z,55.63
2024-01-12T17:00:56.146Z,50.77
2024-01-12T17:03:25.393Z,52.80
2024-01-12T17:05:52.714Z,58.50
2024-01-12T17:08:19.470Z,55.77
2024-01-12T17:10:45.943Z,49.30
2024-01-12T17:13:12.701Z,54.63
2024-01-12T17:15:39.192Z,57.47
2024-01-12T17:18:12.851Z,54.83
2024-01-12T17:20:45.580Z,53.53
2024-01-12T17:23:12.102Z,57.10
2024-01-12T17:25:38.822Z,52.47
2024-01-12T17:28:05.707Z,55.83
2024-01-12T17:30:37.629Z,58.10
2024-01-12T17:33:13.717Z,53.77
2024-01-12T17:35:40.531Z,51.03
2024-01-12T17:38:08.321Z,55.17
2024-01-12T17:40:35.251Z,57.77
2024-01-12T17:43:01.774Z,60.97
2024-01-12T17:45:28.730Z,57.50
2024-01-12T17:47:56.892Z,57.57
2024-01-12T17:50:23.880Z,60.47
2024-01-12T17:52:50.412Z,61.90
2024-01-12T17:55:16.889Z,55.10
2024-01-12T17:57:45.580Z,55.60
2024-01-12T18:00:13.595Z,59.83
2024-01-12T18:02:40.699Z,57.90
2024-01-12T18:05:08.597Z,67.77
2024-01-12T18:07:35.463Z,92.47
2024-01-12T18:10:02.277Z,190.80
2024-01-12T18:12:28.765Z,113.00
2024-01-12T18:14:55.203Z,120.57
2024-01-12T18:17:21.749Z,88.63
2024-01-12T18:19:48.895Z,65.00
2024-01-12T18:22:15.618Z,56.73
2024-01-12T18:24:47.264Z,48.20
2024-01-12T18:27:13.852Z,54.13
2024-01-12T18:29:40.606Z,49.90
2024-01-12T18:32:07.346Z,49.23
2024-01-12T18:34:34.059Z,52.67
2024-01-12T18:37:00.595Z,158.50
2024-01-12T18:39:27.102Z,201.27
2024-01-12T18:41:53.603Z,166.53
2024-01-12T18:44:20.377Z,167.70
2024-01-12T18:46:46.970Z,81.73
2024-01-12T18:49:15.847Z,149.50
2024-01-12T18:51:43.209Z,187.50
2024-01-12T18:54:10.817Z,204.13
2024-01-12T18:56:37.431Z,166.33
2024-01-12T18:59:03.935Z,158.53
2024-01-12T19:01:34.123Z,101.83
2024-01-12T19:04:01.521Z,107.70
2024-01-12T19:06:28.325Z,114.20
2024-01-12T19:08:55.192Z,80.60
2024-01-12T19:11:21.920Z,78.53
2024-01-12T19:13:48.361Z,62.20
2024-01-12T19:16:16.067Z,64.60
2024-01-12T19:18:42.755Z,61.87
2024-01-12T19:21:11.071Z,51.27
2024-01-12T19:23:37.625Z,53.13
2024-01-12T19:26:05.087Z,51.80
2024-01-12T19:28:31.808Z,56.50
2024-01-12T19:30:59.133Z,51.10
2024-01-12T19:33:26.060Z,56.77
2024-01-12T19:35:53.105Z,48.93
2024-01-12T19:38:19.832Z,48.97
2024-01-12T19:40:46.356Z,40.00
2024-01-12T19:43:12.879Z,41.23
2024-01-12T19:45:40.654Z,37.33
2024-01-12T19:48:07.614Z,38.97
2024-01-12T19:50:34.224Z,38.37
2024-01-12T19:53:00.834Z,36.73
2024-01-12T19:55:27.286Z,35.30
2024-01-12T19:57:53.967Z,42.47
2024-01-12T20:00:21.324Z,38.37
2024-01-12T20:02:47.936Z,33.97
2024-01-12T20:05:14.830Z,37.97
2024-01-12T20:07:41.644Z,36.37
2024-01-12T20:10:09.938Z,27.73
2024-01-12T20:12:36.599Z,25.63
2024-01-12T20:15:04.390Z,29.43
2024-01-12T20:17:31.950Z,27.80
2024-01-12T20:19:58.824Z,29.97
2024-01-12T20:22:26.720Z,26.93
2024-01-12T20:24:53.812Z,26.93
2024-01-12T20:27:20.352Z,26.20
2024-01-12T20:29:47.137Z,29.67
2024-01-12T20:32:14.071Z,28.57
2024-01-12T20:34:40.964Z,29.03
2024-01-12T20:37:09.151Z,27.50
2024-01-12T20:39:35.654Z,32.77
2024-01-12T20:42:02.624Z,27.97
2024-01-12T20:44:29.185Z,28.57
2024-01-12T20:46:55.672Z,28.77
2024-01-12T20:49:22.226Z,28.80
2024-01-12T20:51:48.954Z,30.53
2024-01-12T20:54:15.746Z,29.73
2024-01-12T20:56:42.384Z,26.83
2024-01-12T20:59:08.830Z,25.03
2024-01-12T21:01:36.247Z,28.07
2024-01-12T21:04:03.515Z,32.10
2024-01-12T21:06:30.807Z,28.97
2024-01-12T21:08:57.528Z,32.77
2024-01-12T21:11:24.180Z,32.13
2024-01-12T21:13:50.638Z,30.70
2024-01-12T21:16:17.790Z,31.10
2024-01-12T21:18:45.043Z,34.33
2024-01-12T21:21:12.277Z,35.03
2024-01-12T21:23:38.966Z,38.50
2024-01-12T21:26:06.930Z,34.00
2024-01-12T21:28:33.719Z,36.70
2024-01-12T21:31:02.448Z,33.30
2024-01-12T21:33:30.246Z,33.03
2024-01-12T21:35:57.315Z,37.37
2024-01-12T21:38:23.926Z,36.43
2024-01-12T21:40:50.756Z,38.13
2024-01-12T21:43:17.312Z,38.80
2024-01-12T21:45:45.157Z,35.33
2024-01-12T21:48:12.828Z,38.57
2024-01-12T21:50:41.370Z,32.33
2024-01-12T21:53:08.044Z,35.20
2024-01-12T21:55:34.813Z,34.57
2024-01-12T21:58:06.296Z,34.83
2024-01-12T22:00:34.248Z,37.47
2024-01-12T22:03:01.348Z,32.50
2024-01-12T22:05:28.029Z,30.87
2024-01-12T22:07:54.561Z,31.73
2024-01-12T22:10:20.970Z,30.70
2024-01-12T22:12:49.410Z,33.93
2024-01-12T22:15:16.303Z,32.00
2024-01-12T22:17:42.962Z,29.73
2024-01-12T22:20:11.911Z,31.33
2024-01-12T22:22:39.415Z,28.37
2024-01-12T22:25:07.498Z,29.73
2024-01-12T22:27:37.366Z,30.40
2024-01-12T22:30:04.278Z,31.80
2024-01-12T22:32:31.250Z,32.20
2024-01-12T22:34:58.091Z,29.23
2024-01-12T22:37:24.569Z,24.43
2024-01-12T22:39:51.081Z,26.03
2024-01-12T22:42:17.533Z,27.83
2024-01-12T22:44:44.573Z,25.17
2024-01-12T22:47:11.209Z,23.70
2024-01-12T22:49:37.832Z,22.33
2024-01-12T22:52:04.746Z,24.97
2024-01-12T22:54:31.173Z,23.93
2024-01-12T22:56:57.650Z,24.13
2024-01-12T22:59:24.092Z,39.20
2024-01-12T23:01:52.529Z,43.83
2024-01-12T23:04:19.482Z,44.97
2024-01-12T23:06:46.276Z,43.60
2024-01-12T23:09:13.192Z,39.50
2024-01-12T23:11:39.817Z,34.73
2024-01-12T23:14:06.737Z,31.60
2024-01-12T23:16:33.263Z,25.77
2024-01-12T23:19:00.414Z,26.23
2024-01-12T23:21:27.396Z,24.27
2024-01-12T23:23:54.141Z,27.07
2024-01-12T23:26:22.929Z,27.87
2024-01-12T23:28:49.658Z,24.37
2024-01-12T23:31:16.544Z,27.00
2024-01-12T23:33:43.375Z,21.30
2024-01-12T23:36:10.075Z,22.07
2024-01-12T23:38:36.919Z,19.93
2024-01-12T23:41:04.651Z,22.07
2024-01-12T23:43:32.095Z,21.83
2024-01-12T23:45:59.379Z,19.00
2024-01-12T23:48:34.067Z,17.83
2024-01-12T23:51:04.654Z,19.10
2024-01-12T23:53:31.275Z,20.03
2024-01-12T23:55:58.958Z,19.50
2024-01-12T23:58:30.407Z,19.37
